createdAt,value
2017-07-25T00:02:12.448Z,14.33
2017-07-25T00:04:40.149Z,14.32
2017-07-25T00:07:07.845Z,14.31
2017-07-25T00:09:35.480Z,14.32
2017-07-25T00:12:03.139Z,14.33
2017-07-25T00:14:31.078Z,14.29
2017-07-25T00:16:58.717Z,14.31
2017-07-25T00:19:26.349Z,14.31
2017-07-25T00:21:54.022Z,14.30
2017-07-25T00:24:21.741Z,14.26
2017-07-25T00:26:49.395Z,14.26
2017-07-25T00:29:17.036Z,14.29
2017-07-25T00:31:44.710Z,14.25
2017-07-25T00:34:12.313Z,14.21
2017-07-25T00:36:40.062Z,14.16
2017-07-25T00:39:07.680Z,14.14
2017-07-25T00:41:35.659Z,14.15
2017-07-25T00:44:03.303Z,14.18
2017-07-25T00:46:30.953Z,14.20
2017-07-25T00:48:58.574Z,14.22
2017-07-25T00:51:26.230Z,14.25
2017-07-25T00:53:53.866Z,14.27
2017-07-25T00:56:21.662Z,14.25
2017-07-25T00:58:49.283Z,14.25
2017-07-25T01:01:16.963Z,14.27
2017-07-25T01:03:44.592Z,14.31
2017-07-25T01:06:12.232Z,14.34
2017-07-25T01:08:39.862Z,14.38
2017-07-25T01:11:07.632Z,14.40
2017-07-25T01:13:35.264Z,14.39
2017-07-25T01:16:02.953Z,14.40
2017-07-25T01:18:30.641Z,14.40
2017-07-25T01:20:58.347Z,14.40
2017-07-25T01:23:26.059Z,14.40
2017-07-25T01:25:53.701Z,14.38
2017-07-25T01:28:21.369Z,14.38
2017-07-25T01:30:48.986Z,14.39
2017-07-25T01:33:16.651Z,14.41
2017-07-25T01:35:44.272Z,14.43
2017-07-25T01:38:11.938Z,14.45
2017-07-25T01:40:39.553Z,14.46
2017-07-25T01:43:07.187Z,14.45
2017-07-25T01:45:34.845Z,14.43
2017-07-25T01:48:02.515Z,14.40
2017-07-25T01:50:30.166Z,14.42
2017-07-25T01:52:57.849Z,14.43
2017-07-25T01:55:25.482Z,14.38
2017-07-25T01:57:53.122Z,14.32
2017-07-25T02:00:20.757Z,14.24
2017-07-25T02:02:48.404Z,14.18
2017-07-25T02:05:16.075Z,14.15
2017-07-25T02:07:43.868Z,14.10
2017-07-25T02:10:11.936Z,14.10
2017-07-25T02:12:39.849Z,14.05
2017-07-25T02:15:07.572Z,14.01
2017-07-25T02:17:35.218Z,13.99
2017-07-25T02:20:02.858Z,13.95
2017-07-25T02:22:30.514Z,13.92
2017-07-25T02:24:58.163Z,13.88
2017-07-25T02:27:25.813Z,13.84
2017-07-25T02:29:53.841Z,13.83
2017-07-25T02:32:21.850Z,13.84
2017-07-25T02:34:49.495Z,13.90
2017-07-25T02:37:17.155Z,13.91
2017-07-25T02:39:44.773Z,13.90
2017-07-25T02:42:12.430Z,13.92
2017-07-25T02:44:40.063Z,13.95
2017-07-25T02:47:07.713Z,13.96
2017-07-25T02:49:35.327Z,13.97
2017-07-25T02:52:03.279Z,13.97
2017-07-25T02:54:30.940Z,13.96
2017-07-25T02:56:58.585Z,13.96
2017-07-25T02:59:26.247Z,13.97
2017-07-25T03:01:53.857Z,14.00
2017-07-25T03:04:21.495Z,13.99
2017-07-25T03:06:49.141Z,13.98
2017-07-25T03:09:17.126Z,13.97
2017-07-25T03:11:44.860Z,13.97
2017-07-25T03:14:12.497Z,14.00
2017-07-25T03:16:40.173Z,14.01
2017-07-25T03:19:07.840Z,14.05
2017-07-25T03:21:35.465Z,14.07
2017-07-25T03:24:03.180Z,14.09
2017-07-25T03:26:30.809Z,14.08
2017-07-25T03:28:58.467Z,14.10
2017-07-25T03:31:26.093Z,14.11
2017-07-25T03:33:53.730Z,14.09
2017-07-25T03:36:21.379Z,14.10
2017-07-25T03:38:49.036Z,14.09
2017-07-25T03:41:16.679Z,14.08
2017-07-25T03:43:44.727Z,14.09
2017-07-25T03:46:12.375Z,14.10
2017-07-25T03:48:40.030Z,14.06
2017-07-25T03:51:07.668Z,14.04
2017-07-25T03:53:35.468Z,14.06
2017-07-25T03:56:03.075Z,14.08
2017-07-25T03:58:31.230Z,14.08
2017-07-25T04:00:58.924Z,14.07
2017-07-25T04:03:26.571Z,14.08
2017-07-25T04:05:54.251Z,14.07
2017-07-25T04:08:21.936Z,14.08
2017-07-25T04:10:49.577Z,14.07
2017-07-25T04:13:17.236Z,14.07
2017-07-25T04:15:44.871Z,14.07
2017-07-25T04:18:12.548Z,14.08
2017-07-25T04:20:40.176Z,14.10
2017-07-25T04:23:08.124Z,14.12
2017-07-25T04:25:35.764Z,14.11
2017-07-25T04:28:03.369Z,14.13
2017-07-25T04:30:31.934Z,14.15
2017-07-25T04:32:59.548Z,14.15
2017-07-25T04:35:27.225Z,14.16
2017-07-25T04:37:54.964Z,14.16
2017-07-25T04:40:22.945Z,14.17
2017-07-25T04:42:50.592Z,14.13
2017-07-25T04:45:18.238Z,14.14
2017-07-25T04:47:45.873Z,14.19
2017-07-25T04:50:13.584Z,14.21
2017-07-25T04:52:41.198Z,14.23
2017-07-25T04:55:08.874Z,14.25
2017-07-25T04:57:36.521Z,14.27
2017-07-25T05:00:04.715Z,14.32
2017-07-25T05:02:32.357Z,14.36
2017-07-25T05:05:00.015Z,14.42
2017-07-25T05:07:27.605Z,14.46
2017-07-25T05:09:55.256Z,14.50
2017-07-25T05:12:22.907Z,14.56
2017-07-25T05:14:50.554Z,14.57
2017-07-25T05:17:18.177Z,14.60
2017-07-25T05:19:45.825Z,14.62
2017-07-25T05:22:13.470Z,14.64
2017-07-25T05:24:41.160Z,14.65
2017-07-25T05:27:08.797Z,14.68
2017-07-25T05:29:36.453Z,14.71
2017-07-25T05:32:04.096Z,14.71
2017-07-25T05:34:31.729Z,14.69
2017-07-25T05:36:59.443Z,14.70
2017-07-25T05:39:27.095Z,14.74
2017-07-25T05:41:54.769Z,14.77
2017-07-25T05:44:22.457Z,14.77
2017-07-25T05:46:50.083Z,14.76
2017-07-25T05:49:17.731Z,14.74
2017-07-25T05:51:45.433Z,14.74
2017-07-25T05:54:13.094Z,14.73
2017-07-25T05:56:40.754Z,14.68
2017-07-25T05:59:08.441Z,14.69
2017-07-25T06:01:36.105Z,14.65
2017-07-25T06:04:03.749Z,14.64
2017-07-25T06:06:31.479Z,14.62
2017-07-25T06:08:59.121Z,14.56
2017-07-25T06:11:26.881Z,14.60
2017-07-25T06:13:54.534Z,14.64
2017-07-25T06:16:22.222Z,14.73
2017-07-25T06:18:50.010Z,14.81
2017-07-25T06:21:17.693Z,14.90
2017-07-25T06:23:45.348Z,14.93
2017-07-25T06:26:13.116Z,14.99
2017-07-25T06:28:40.758Z,14.99
2017-07-25T06:31:08.422Z,15.01
2017-07-25T06:33:36.059Z,15.02
2017-07-25T06:36:04.420Z,15.05
2017-07-25T06:38:32.080Z,15.15
2017-07-25T06:40:59.775Z,15.19
2017-07-25T06:43:27.452Z,15.25
2017-07-25T06:45:55.127Z,15.33
2017-07-25T06:48:22.768Z,15.36
2017-07-25T06:50:50.447Z,15.40
2017-07-25T06:53:18.078Z,15.38
2017-07-25T06:55:45.735Z,15.43
2017-07-25T06:58:13.423Z,15.47
2017-07-25T07:00:41.063Z,15.54
2017-07-25T07:03:08.693Z,15.56
2017-07-25T07:05:36.370Z,15.60
2017-07-25T07:08:04.010Z,15.62
2017-07-25T07:10:31.672Z,15.64
2017-07-25T07:12:59.322Z,15.70
2017-07-25T07:15:26.971Z,15.71
2017-07-25T07:17:54.609Z,15.76
2017-07-25T07:20:22.245Z,15.73
2017-07-25T07:22:49.968Z,15.75
2017-07-25T07:25:17.590Z,15.77
2017-07-25T07:27:45.248Z,15.78
2017-07-25T07:30:12.986Z,15.80
2017-07-25T07:32:40.731Z,15.86
2017-07-25T07:35:08.367Z,15.86
2017-07-25T07:37:36.027Z,15.91
2017-07-25T07:40:03.649Z,15.99
2017-07-25T07:42:31.313Z,16.02
2017-07-25T07:44:58.921Z,16.06
2017-07-25T07:47:26.593Z,16.08
2017-07-25T07:49:54.220Z,16.06
2017-07-25T07:52:21.883Z,15.99
2017-07-25T07:54:49.521Z,16.00
2017-07-25T07:57:17.171Z,16.03
2017-07-25T07:59:44.823Z,16.04
2017-07-25T08:02:12.545Z,16.07
2017-07-25T08:04:40.227Z,16.09
2017-07-25T08:07:07.871Z,16.13
2017-07-25T08:09:35.495Z,16.22
2017-07-25T08:12:03.144Z,16.23
2017-07-25T08:14:30.769Z,16.21
2017-07-25T08:16:58.419Z,16.28
2017-07-25T08:19:26.039Z,16.38
2017-07-25T08:21:53.671Z,16.50
2017-07-25T08:24:21.333Z,16.65
2017-07-25T08:26:49.011Z,16.69
2017-07-25T08:29:16.646Z,16.78
2017-07-25T08:31:44.403Z,16.82
2017-07-25T08:34:12.041Z,16.89
2017-07-25T08:36:39.689Z,16.92
2017-07-25T08:39:07.343Z,16.95
2017-07-25T08:41:35.024Z,16.91
2017-07-25T08:44:02.677Z,16.82
2017-07-25T08:46:30.349Z,16.80
2017-07-25T08:48:58.066Z,16.80
2017-07-25T08:51:26.014Z,16.90
2017-07-25T08:53:53.625Z,17.02
2017-07-25T08:56:21.247Z,17.04
2017-07-25T08:58:48.922Z,17.17
2017-07-25T09:01:16.645Z,17.34
2017-07-25T09:03:44.451Z,17.44
2017-07-25T09:06:13.218Z,17.60
2017-07-25T09:08:40.971Z,17.74
2017-07-25T09:11:08.639Z,17.86
2017-07-25T09:13:36.393Z,18.00
2017-07-25T09:16:04.025Z,18.07
2017-07-25T09:18:31.689Z,18.09
2017-07-25T09:20:59.332Z,17.92
2017-07-25T09:23:26.983Z,17.80
2017-07-25T09:25:54.576Z,17.72
2017-07-25T09:28:22.203Z,17.60
2017-07-25T09:30:49.876Z,17.56
2017-07-25T09:33:17.531Z,17.69
2017-07-25T09:35:45.253Z,18.07
2017-07-25T09:38:12.903Z,18.32
2017-07-25T09:40:40.541Z,18.39
2017-07-25T09:43:08.195Z,18.45
2017-07-25T09:45:35.848Z,18.41
2017-07-25T09:48:03.494Z,18.21
2017-07-25T09:50:31.123Z,18.10
2017-07-25T09:52:59.647Z,17.99
2017-07-25T09:55:28.083Z,17.99
2017-07-25T09:57:55.745Z,18.16
2017-07-25T10:00:23.400Z,18.28
2017-07-25T10:02:51.125Z,18.30
2017-07-25T10:05:18.776Z,18.27
2017-07-25T10:07:46.410Z,18.36
2017-07-25T10:10:14.084Z,18.42
2017-07-25T10:12:41.729Z,18.51
2017-07-25T10:15:09.368Z,18.48
2017-07-25T10:17:37.021Z,18.38
2017-07-25T10:20:04.719Z,18.36
2017-07-25T10:22:32.362Z,18.51
2017-07-25T10:25:00.032Z,18.56
2017-07-25T10:27:27.658Z,18.57
2017-07-25T10:29:55.302Z,18.83
2017-07-25T10:32:22.946Z,18.99
2017-07-25T10:34:50.603Z,19.19
2017-07-25T10:37:18.296Z,19.21
2017-07-25T10:39:45.962Z,19.05
2017-07-25T10:42:13.575Z,18.79
2017-07-25T10:44:41.234Z,18.79
2017-07-25T10:47:08.911Z,19.04
2017-07-25T10:49:36.643Z,19.35
2017-07-25T10:52:04.327Z,19.58
2017-07-25T10:54:31.995Z,19.77
2017-07-25T10:56:59.608Z,19.72
2017-07-25T10:59:27.273Z,19.24
2017-07-25T11:01:54.933Z,18.72
2017-07-25T11:04:22.602Z,18.31
2017-07-25T11:06:50.246Z,17.86
2017-07-25T11:09:17.893Z,17.64
2017-07-25T11:11:45.845Z,17.68
2017-07-25T11:14:13.539Z,17.84
2017-07-25T11:16:41.171Z,18.02
2017-07-25T11:19:08.835Z,18.34
2017-07-25T11:21:36.487Z,18.56
2017-07-25T11:24:04.139Z,18.57
2017-07-25T11:26:31.791Z,18.63
2017-07-25T11:28:59.432Z,18.55
2017-07-25T11:31:27.093Z,18.62
2017-07-25T11:33:54.783Z,18.74
2017-07-25T11:36:22.433Z,18.86
2017-07-25T11:38:50.117Z,18.83
2017-07-25T11:41:19.687Z,18.80
2017-07-25T11:43:47.384Z,18.68
2017-07-25T11:46:15.116Z,18.77
2017-07-25T11:48:42.757Z,18.87
2017-07-25T11:51:10.537Z,19.02
2017-07-25T11:53:38.173Z,19.21
2017-07-25T11:56:05.822Z,19.37
2017-07-25T11:58:33.572Z,19.53
2017-07-25T12:01:01.271Z,19.47
2017-07-25T12:03:28.941Z,19.27
2017-07-25T12:05:56.727Z,19.17
2017-07-25T12:08:24.366Z,19.33
2017-07-25T12:10:52.037Z,19.51
2017-07-25T12:13:19.674Z,19.81
2017-07-25T12:15:47.362Z,20.21
2017-07-25T12:18:15.011Z,20.14
2017-07-25T12:20:54.644Z,19.76
2017-07-25T12:23:22.249Z,19.46
2017-07-25T12:25:49.910Z,18.99
2017-07-25T12:28:17.609Z,18.26
2017-07-25T12:30:45.289Z,17.89
2017-07-25T12:33:13.064Z,17.86
2017-07-25T12:35:40.804Z,17.89
2017-07-25T12:38:08.439Z,18.20
2017-07-25T12:40:36.751Z,18.40
2017-07-25T12:43:04.380Z,18.52
2017-07-25T12:45:33.491Z,18.70
2017-07-25T12:48:01.132Z,18.84
2017-07-25T12:50:28.804Z,18.99
2017-07-25T12:52:56.850Z,19.12
2017-07-25T12:55:24.539Z,19.26
2017-07-25T12:57:52.163Z,19.50
2017-07-25T13:00:19.926Z,19.64
2017-07-25T13:03:08.452Z,19.65
2017-07-25T13:05:36.119Z,19.43
2017-07-25T13:08:03.752Z,19.32
2017-07-25T13:10:31.398Z,19.26
2017-07-25T13:12:58.980Z,19.28
2017-07-25T13:15:26.694Z,19.32
2017-07-25T13:17:54.321Z,19.40
2017-07-25T13:20:22.008Z,19.41
2017-07-25T13:22:49.627Z,19.35
2017-07-25T13:25:17.414Z,19.15
2017-07-25T13:27:45.023Z,19.02
2017-07-25T13:30:12.828Z,18.91
2017-07-25T13:32:40.470Z,18.83
2017-07-25T13:35:08.618Z,18.85
2017-07-25T13:37:36.237Z,18.89
2017-07-25T13:40:04.041Z,19.15
2017-07-25T13:42:31.653Z,19.17
2017-07-25T13:44:59.311Z,19.08
2017-07-25T13:47:26.983Z,19.12
2017-07-25T13:49:54.684Z,19.03
2017-07-25T13:52:22.392Z,18.87
2017-07-25T13:54:50.083Z,18.57
2017-07-25T13:57:17.736Z,18.38
2017-07-25T13:59:45.440Z,18.29
2017-07-25T14:02:13.110Z,18.22
2017-07-25T14:04:40.805Z,18.22
2017-07-25T14:07:08.567Z,18.28
2017-07-25T14:09:36.323Z,18.17
2017-07-25T14:12:04.080Z,17.93
2017-07-25T14:14:31.703Z,17.57
2017-07-25T14:16:59.346Z,17.26
2017-07-25T14:19:26.989Z,16.93
2017-07-25T14:21:54.661Z,16.79
2017-07-25T14:24:22.298Z,16.63
2017-07-25T14:26:49.967Z,16.52
2017-07-25T14:29:17.752Z,16.46
2017-07-25T14:31:45.415Z,16.44
2017-07-25T14:34:13.048Z,16.71
2017-07-25T14:36:40.711Z,17.58
2017-07-25T14:39:08.433Z,17.78
2017-07-25T14:41:36.202Z,17.85
2017-07-25T14:44:03.844Z,18.25
2017-07-25T14:46:31.520Z,18.27
2017-07-25T14:48:59.167Z,18.19
2017-07-25T14:51:27.131Z,18.62
2017-07-25T14:53:54.828Z,19.17
2017-07-25T14:56:22.472Z,19.31
2017-07-25T14:58:51.279Z,18.89
2017-07-25T15:01:18.952Z,18.65
2017-07-25T15:03:46.600Z,18.34
2017-07-25T15:06:14.254Z,17.99
2017-07-25T15:08:42.062Z,17.69
2017-07-25T15:11:09.997Z,17.69
2017-07-25T15:13:37.633Z,17.93
2017-07-25T15:16:05.252Z,18.07
2017-07-25T15:18:32.911Z,18.19
2017-07-25T15:21:00.582Z,18.39
2017-07-25T15:23:28.272Z,18.89
2017-07-25T15:25:55.898Z,18.91
2017-07-25T15:28:23.564Z,18.83
2017-07-25T15:30:51.205Z,18.53
2017-07-25T15:33:19.012Z,18.67
2017-07-25T15:35:46.648Z,18.81
2017-07-25T15:38:14.330Z,18.82
2017-07-25T15:40:41.976Z,18.79
2017-07-25T15:43:09.643Z,18.69
2017-07-25T15:45:37.272Z,18.66
2017-07-25T15:48:04.930Z,18.43
2017-07-25T15:50:32.579Z,18.28
2017-07-25T15:53:00.471Z,18.26
2017-07-25T15:55:28.098Z,18.09
2017-07-25T15:57:55.761Z,17.98
2017-07-25T16:00:23.379Z,17.91
2017-07-25T16:02:51.205Z,17.80
2017-07-25T16:05:18.851Z,17.56
2017-07-25T16:07:46.527Z,17.27
2017-07-25T16:10:14.202Z,17.18
2017-07-25T16:12:41.868Z,17.19
2017-07-25T16:15:09.496Z,17.27
2017-07-25T16:17:37.196Z,17.37
2017-07-25T16:20:04.860Z,17.37
2017-07-25T16:22:32.554Z,17.41
2017-07-25T16:25:00.304Z,17.36
2017-07-25T16:27:27.983Z,17.32
2017-07-25T16:29:55.746Z,17.34
2017-07-25T16:32:23.389Z,17.24
2017-07-25T16:34:51.060Z,17.03
2017-07-25T16:37:18.723Z,16.87
2017-07-25T16:39:46.527Z,16.85
2017-07-25T16:42:14.167Z,16.82
2017-07-25T16:44:41.850Z,16.84
2017-07-25T16:47:09.496Z,16.84
2017-07-25T16:49:37.148Z,16.79
2017-07-25T16:52:04.779Z,16.69
2017-07-25T16:54:32.765Z,16.57
2017-07-25T16:57:00.670Z,16.45
2017-07-25T16:59:28.292Z,16.33
2017-07-25T17:01:55.959Z,16.26
2017-07-25T17:04:23.598Z,16.24
2017-07-25T17:06:51.523Z,16.20
2017-07-25T17:09:19.167Z,16.14
2017-07-25T17:11:46.918Z,16.10
2017-07-25T17:14:14.587Z,16.04
2017-07-25T17:16:42.245Z,15.90
2017-07-25T17:19:10.190Z,15.80
2017-07-25T17:21:37.827Z,15.75
2017-07-25T17:24:05.467Z,15.68
2017-07-25T17:26:33.130Z,15.62
2017-07-25T17:29:00.768Z,15.51
2017-07-25T17:31:28.443Z,15.44
2017-07-25T17:33:56.096Z,15.30
2017-07-25T17:36:25.287Z,15.31
2017-07-25T17:38:53.137Z,15.24
2017-07-25T17:41:20.768Z,15.25
2017-07-25T17:43:48.480Z,15.21
2017-07-25T17:46:16.144Z,15.16
2017-07-25T17:48:43.835Z,15.13
2017-07-25T17:51:11.501Z,15.10
2017-07-25T17:53:39.191Z,15.10
2017-07-25T17:56:06.962Z,15.09
2017-07-25T17:58:34.672Z,15.12
2017-07-25T18:01:02.316Z,15.05
2017-07-25T18:06:04.106Z,15.01
2017-07-25T18:08:32.160Z,14.95
2017-07-25T18:10:59.852Z,14.94
2017-07-25T18:13:27.551Z,14.93
2017-07-25T18:15:55.213Z,14.93
2017-07-25T18:18:22.877Z,14.85
2017-07-25T18:28:47.560Z,14.77
2017-07-25T18:31:15.366Z,14.73
2017-07-25T18:33:43.001Z,14.75
2017-07-25T18:36:10.710Z,14.75
2017-07-25T18:38:38.381Z,14.76
2017-07-25T18:41:06.049Z,14.75
2017-07-25T18:43:34.475Z,14.76
2017-07-25T18:46:02.204Z,14.73
2017-07-25T18:48:29.962Z,14.74
2017-07-25T18:50:57.641Z,14.73
2017-07-25T18:53:25.702Z,14.74
2017-07-25T18:55:53.368Z,14.72
2017-07-25T18:58:21.047Z,14.70
2017-07-25T19:00:48.748Z,14.69
2017-07-25T19:03:16.462Z,14.65
2017-07-25T19:05:44.093Z,14.62
2017-07-25T19:08:11.763Z,14.60
2017-07-25T19:10:39.412Z,14.55
2017-07-25T19:13:07.061Z,14.53
2017-07-25T19:15:34.775Z,14.54
2017-07-25T19:18:02.470Z,14.52
2017-07-25T19:20:30.210Z,14.49
2017-07-25T19:22:57.916Z,14.45
2017-07-25T19:25:25.566Z,14.42
2017-07-25T19:27:53.416Z,14.40
2017-07-25T19:30:21.115Z,14.37
2017-07-25T19:32:48.814Z,14.36
2017-07-25T19:35:16.479Z,14.37
2017-07-25T19:37:44.267Z,14.37
2017-07-25T19:40:11.913Z,14.35
2017-07-25T19:42:39.578Z,14.34
2017-07-25T19:45:07.203Z,14.31
2017-07-25T19:47:34.883Z,14.31
2017-07-25T19:50:02.567Z,14.30
2017-07-25T19:52:30.281Z,14.28
2017-07-25T19:54:58.000Z,14.24
2017-07-25T19:57:25.658Z,14.22
2017-07-25T19:59:53.327Z,14.22
2017-07-25T20:02:21.052Z,14.22
2017-07-25T20:04:48.723Z,14.24
2017-07-25T20:07:16.418Z,14.26
2017-07-25T20:09:44.254Z,14.29
2017-07-25T20:12:11.940Z,14.31
2017-07-25T20:14:39.597Z,14.30
2017-07-25T20:17:07.565Z,14.29
2017-07-25T20:19:35.160Z,14.28
2017-07-25T20:22:02.855Z,14.30
2017-07-25T20:24:30.520Z,14.29
2017-07-25T20:26:58.227Z,14.29
2017-07-25T20:29:25.868Z,14.24
2017-07-25T20:31:53.490Z,14.17
2017-07-25T20:34:21.195Z,14.16
2017-07-25T20:36:48.785Z,14.13
2017-07-25T20:39:16.532Z,14.10
2017-07-25T20:41:44.167Z,14.11
2017-07-25T20:44:11.862Z,14.09
2017-07-25T20:46:39.582Z,14.05
2017-07-25T20:49:07.277Z,14.03
2017-07-25T20:51:35.001Z,14.02
2017-07-25T20:54:02.671Z,14.00
2017-07-25T20:56:30.314Z,13.96
2017-07-25T20:58:58.003Z,13.94
2017-07-25T21:01:26.972Z,13.91
2017-07-25T21:03:54.687Z,13.92
2017-07-25T21:06:22.498Z,13.90
2017-07-25T21:08:50.216Z,13.89
2017-07-25T21:11:17.867Z,13.87
2017-07-25T21:13:45.553Z,13.86
2017-07-25T21:16:13.244Z,13.87
2017-07-25T21:18:40.880Z,13.87
2017-07-25T21:21:08.504Z,13.92
2017-07-25T21:23:36.153Z,13.91
2017-07-25T21:26:03.837Z,13.92
2017-07-25T21:28:31.522Z,13.91
2017-07-25T21:30:59.176Z,13.91
2017-07-25T21:33:26.868Z,13.95
2017-07-25T21:35:54.509Z,13.92
2017-07-25T21:38:22.195Z,13.96
2017-07-25T21:40:49.832Z,13.99
2017-07-25T21:43:17.510Z,13.98
2017-07-25T21:45:45.151Z,13.98
2017-07-25T21:48:12.834Z,13.99
2017-07-25T21:50:40.454Z,14.01
2017-07-25T21:53:08.523Z,14.03
2017-07-25T21:55:36.194Z,14.09
2017-07-25T21:58:03.847Z,14.10
2017-07-25T22:00:31.532Z,14.09
2017-07-25T22:03:10.744Z,14.09
2017-07-25T22:05:38.404Z,14.09
2017-07-25T22:08:06.082Z,14.08
2017-07-25T22:10:33.878Z,14.10
2017-07-25T22:13:01.584Z,14.10
2017-07-25T22:15:29.259Z,14.07
2017-07-25T22:17:56.950Z,14.07
2017-07-25T22:20:24.624Z,14.08
2017-07-25T22:22:52.358Z,14.08
2017-07-25T22:25:20.238Z,14.09
2017-07-25T22:27:47.907Z,14.10
2017-07-25T22:30:15.525Z,14.13
2017-07-25T22:32:43.153Z,14.13
2017-07-25T22:35:10.852Z,14.13
2017-07-25T22:37:38.471Z,14.12
2017-07-25T22:40:06.116Z,14.12
2017-07-25T22:42:33.735Z,14.11
2017-07-25T22:45:01.396Z,14.12
2017-07-25T22:47:29.030Z,14.08
2017-07-25T22:49:56.686Z,14.08
2017-07-25T22:52:24.420Z,14.06
2017-07-25T22:54:52.095Z,14.03
2017-07-25T22:57:19.729Z,14.05
2017-07-25T22:59:47.404Z,14.04
2017-07-25T23:02:15.050Z,14.05
2017-07-25T23:04:42.700Z,14.02
2017-07-25T23:07:10.317Z,14.02
2017-07-25T23:09:37.972Z,14.03
2017-07-25T23:12:05.618Z,14.02
2017-07-25T23:14:33.252Z,14.00
2017-07-25T23:17:00.943Z,13.99
2017-07-25T23:19:28.618Z,13.93
2017-07-25T23:21:56.708Z,13.93
2017-07-25T23:24:24.378Z,13.94
2017-07-25T23:26:52.130Z,13.91
2017-07-25T23:29:20.038Z,13.88
2017-07-25T23:31:47.711Z,13.86
2017-07-25T23:34:15.400Z,13.86
2017-07-25T23:36:43.031Z,13.86
2017-07-25T23:39:10.654Z,13.85
2017-07-25T23:41:38.336Z,13.81
2017-07-25T23:44:05.979Z,13.81
2017-07-25T23:46:33.643Z,13.81
2017-07-25T23:49:01.275Z,13.77
2017-07-25T23:51:29.065Z,13.77
2017-07-25T23:53:56.825Z,13.75
2017-07-25T23:56:24.488Z,13.75
2017-07-25T23:58:52.567Z,13.75
